Accueil
METAR-TAF:

METAR-TAF

Aéroports :

Base aérienne de l'OTAN de Geilenkirchen

Geilenkirchen, Allemagne

latitude: 50-57-39N, longitude: 006-2-33E, altitude: 90 m

Observation

Le bulletin a été fait il y a 2 heures et 16 minutes, à 14:50 UTC
Vent 9 kt de nord-est
Température 6°C
Humidité 42%
Pression 1029 hPa
Visibilité 10 km ou plus
pas de nuages en-dessous de 1500 mètres et pas de cumulonimbus.

METAR: ETNG 051450Z 04009KT CAVOK 06/M06 Q1029 NOSIG

Heure: 18:06 (17:06 UTC)

Prévision

Le bulletin a été fait il y a 3 heures et 6 minutes, à 14:00 UTC
Prévision valable du 05 à 15 UTC au 06 à 06 UTC
Vent 8 kt de nord/nord-est avec des rafales jusqu'à 16 kt
Visibilité 10 km ou plus
pas de nuages en-dessous de 1500 mètres et pas de cumulonimbus.
Evoluant progressivement
du 05 à 17 UTC au 05 à 20 UTC
Vent 3 kt de est/nord-est

TAF: ETNG 051400Z 0515/0606 03008G16KT CAVOK BECMG 0517/0520 06003KT

Observations et prévisions météorologiques de plus de 4000 aéroports (messages METAR et TAF).

Les stations disponibles sont représentées par des disques jaunes et rouges sur la carte.

Passer la souris dessus pour voir le nom de la station.

Cliquer dessus pour voir les observations et prévisions météorologiques.

Pour changer de carte: cliquez sur les boutons verts avec une croix noire pour zoomer, sur le bouton vert avec un tiret pour effectuer un zoom arrière, ou sur les flèches vertes pour les cartes adjacentes.


METAR-TAF: